AirNav   Duncan Aviation - Near you to keep you flying
 
 477 users online  

IN03 Alford Airpark
Petersburg, Indiana, USA

GOING TO PETERSBURG?


FAA INFORMATION EFFECTIVE 07 OCTOBER 2021

Location

FAA Identifier: IN03
Lat/Long: 38-27-50.0000N 087-15-00.0000W
38-27.833333N 087-15.000000W
38.4638889,-87.2500000
(estimated)
Elevation: 500 ft. / 152 m (estimated)
Variation: 02W (2000)
From city: 2 miles S of PETERSBURG, IN
Time zone: UTC -4 (UTC -5 during Standard Time)
Zip code: 47567

Airport Operations

Airport use: Private use. Permission required prior to landing
Activation date: 09/2002
Control tower: no
ARTCC: INDIANAPOLIS CENTER
FSS: TERRE HAUTE FLIGHT SERVICE STATION
Attendance: UNATNDD
Wind indicator: yes
Segmented circle: no

Airport Communications

WX AWOS-3PT at DCY (15 nm N): 124.1 (812-257-8889)
WX AWOS-3PT at HNB (19 nm SE): 118.250 (812-683-4003)

Nearby radio navigation aids

VOR radial/distance  VOR name  Freq  Var
SAMr089/39.3SAMSVILLE VOR/DME116.6003E

 
NDB name  Hdg/Dist  Freq  Var  ID
PALESTINE154/37.839103WPLX .--. .-.. -..-

Airport Services

Runway Information

Runway 9/27

Dimensions: 2400 x 60 ft. / 732 x 18 m
Surface: turf
RUNWAY 9  RUNWAY 27
Traffic pattern: leftleft
Obstructions: trees, 800 ft. from runwaynone

Airport Ownership and Management from official FAA records

Ownership: Privately-owned
Owner: DENNIS D. EVERSOLL
1510E CO RD 300 N
PETERSBURG, IN 47567
Phone 812-582-1407
Manager: DENNIS D. EVERSOLL
1510E CO RD 300 N
PETERSBURG, IN 47567
Phone 812-582-1407

Airport Operational Statistics

Aircraft based on the field: 2
Single engine airplanes: 2
    

Additional Remarks

DRAINAGE DITCH SOUTH SIDE OF RUNWAY.
FOR CD CTC EVANSVILLE APCH AT 812-436-4690, WHEN APCH CLSD CTC INDIANAPOLIS ARTCC AT 317-247-2411.

Instrument Procedures

There are no published instrument procedures at IN03.

Some nearby airports with instrument procedures:

KDCY - Daviess County Airport (15 nm N)
KHNB - Huntingburg Airport (19 nm SE)
KAJG - Mount Carmel Municipal Airport (24 nm W)
KLWV - Lawrenceville-Vincennes International Airport (25 nm NW)
KEVV - Evansville Regional Airport (29 nm SW)
 
Loc | Ops | Rwys | IFR | FBO | Links
Com | Nav | Svcs | Stats | Notes
Area around IN03 (Alford Airpark)
 
Road maps at: MapQuest Bing Google
 
Aerial photo
No photo
 
Sectional chart

 
Airport distance calculator
Flying to Alford Airpark? Find the distance to fly.

From to IN03

Sunrise and sunset
Times for 16-Oct-2021
 Local
(UTC-4)
 Zulu
(UTC)
Morning civil twilight07:3311:33
Sunrise08:0012:00
Sunset19:0923:09
Evening civil twilight19:3623:36

Current date and time
Zulu (UTC)  16-Oct-2021 07:09:56
Local (UTC-4)  16-Oct-2021 03:09:56
 
METAR
KDCY 
15nm N 
160655Z AUTO 32010KT 10SM BKN047 BKN050 OVC080 11/10 A2998 RMK AO2 T01120101
KHNB 
19nm SE 
160703Z AUTO 32009G18KT 10SM BKN013 OVC070 11/10 A2998 RMK AO2
KAJG 
24nm W 
160655Z AUTO 32006KT 10SM OVC060 12/10 A3001 RMK AO2 P0001 T01220100
KI19 
25nm S 
160655Z AUTO 36006KT 7SM -RA SCT008 BKN011 OVC018 14/14 A2979 RMK AO2 T01360136 P0003
KEVV 
28nm SW 
160654Z AUTO 30005KT 10SM BKN048 BKN085 12/10 A3000 RMK AO2 SLP158 T01170100 $
KFRH 
29nm E 
160655Z AUTO 30006G15KT 281V341 10SM SCT009 OVC013 10/09 A2996 RMK AO1
TAF
KHNB 
19nm SE 
160520Z 1606/1706 32014G24KT P6SM -SHRA BKN007 OVC015 TEMPO 1606/1607 SCT007 BKN015 FM160730 31012G18KT P6SM BKN050 FM160900 31009KT P6SM SCT050 FM161400 29014G21KT P6SM SCT040 FM162300 28005KT P6SM SKC
NOTAMs
Click for the latest NOTAMs
NOTAMs are issued by the DoD/FAA and will open in a separate window not controlled by AirNav.

 

 
 

Would you like to see your business listed on this page?

 If your business provides an interesting product or service to pilots, flight crews, aircraft, or users of the Alford Airpark, you should consider listing it here.  To start the listing process, click on the button below
 
Add a business
 

Other Pages about Alford Airpark

Update a link
 
Copyright © AirNav, LLC. All rights reserved. Privacy Policy  Contact